• Join FlightAware (Why Join?)
  • Login
  • US Flag 
07:14AM EDT


 

Airport Tracker/Info


-or-


 

Live Flight TrackerFlight Track Log ✈ KAP550 ✈ 08-May-2013 ✈ KMSS - KALB

Flight Track Log - Related Links

Times and Time Zones

All times are in EDT time to prevent confusion due to time zone crossing. See the KAP550 flight status page for this flight to view local times or setup timezone preferences in your user account.

Time Position Orientation Groundspeed Altitude Reporting Facility
EDT Latitude Longitude Course Direction KTS MPH feet Rate Location/Type
07:22AM 44.4408 -74.6208 160° South 150 173 5,400  Level Boston Center
07:23AM 44.3994 -74.5989 159° South 150 173 5,500  Climbing Boston Center
07:24AM 44.3581 -74.5772 159° South 150 173 5,500  Level Boston Center
07:25AM 44.3147 -74.5581 162° South 150 173 5,500  Level Boston Center
07:26AM 44.2714 -74.5392 163° South 156 180 5,500  Level Boston Center
07:27AM 44.7124 -74.7312 160° South  Level FlightAware Approximate
07:27AM 44.2300 -74.5144 157° South 156 180 5,500  Level Boston Center
07:28AM 44.1889 -74.4958 162° South 162 186 5,500 60 Level Boston Center
07:29AM 44.1475 -74.4800 165° South 162 186 5,700  Climbing Boston Center
07:30AM 44.0958 -74.4519 159° South 167 192 5,600 -60 Descending Boston Center
07:31AM 44.0544 -74.4333 162° South 162 186 5,600  Level Boston Center
07:32AM 44.0214 -74.4150 158° South 162 186 5,600  Level Boston Center
07:33AM 43.9717 -74.3903 160° South 162 186 5,600  Level Boston Center
07:34AM 43.9306 -74.3717 162° South 162 186 5,600  Level Boston Center
07:35AM 43.8892 -74.3531 162° South 162 186 5,600  Level Boston Center
07:36AM 43.8497 -74.3317 159° South 162 186 5,600  Level Boston Center
07:37AM 43.8003 -74.3069 160° South 162 186 5,600 180 Level Boston Center
07:38AM 43.7608 -74.2886 161° South 156 180 6,000 300 Climbing Boston Center
07:39AM 43.7258 -74.2703 159° South 156 180 6,200 300 Climbing Boston Center
07:40AM 43.6886 -74.2519 160° South 145 167 6,600 300 Climbing Boston Center
07:41AM 43.6514 -74.2364 163° South 145 167 6,800 240 Climbing Boston Center
07:42AM 43.6142 -74.2181 160° South 150 173 7,100 240 Climbing Boston Center
07:43AM 43.5747 -74.1997 161° South 150 173 7,300 240 Climbing Boston Center
07:44AM 43.5375 -74.1786 158° South 150 173 7,600 180 Climbing Boston Center
07:45AM 43.5169 -74.1722 167° South 146 168 7,600  Level Boston Center
07:45AM 43.4983 -74.1631 160° South 145 167 7,600  Level Boston Center
07:46AM 43.4794 -74.1597 173° South 153 176 7,600  Level Boston Center
07:46AM 43.4589 -74.1419 148° Southeast 150 173 7,600  Level Boston Center
07:47AM 43.4422 -74.1386 172° South 155 178 7,600  Level Boston Center
07:47AM 43.4175 -74.1236 156° South 150 173 7,600  Level Boston Center
07:48AM 43.4031 -74.1147 156° South 156 180 7,600  Level Boston Center
07:48AM 43.3719 -74.0994 160° South 150 173 7,600  Level Boston Center
07:49AM 43.3617 -74.0992 179° South 155 178 7,600  Level Boston Center
07:49AM 43.3306 -74.0814 157° South 150 173 7,600  Level Boston Center
07:50AM 43.3222 -74.0811 179° South 153 176 7,600  Level Boston Center
07:50AM 43.2933 -74.0631 156° South 150 173 7,600  Level Boston Center
07:51AM 43.2831 -74.0600 168° South 152 175 7,600  Level Boston Center
07:51AM 43.2519 -74.0422 157° South 150 173 7,600  Level Boston Center
07:52AM 43.2417 -74.0419 179° South 154 177 7,600  Level Boston Center
07:52AM 43.2106 -74.0211 154° Southeast 150 173 7,600 -240 Level Boston Center
07:53AM 43.1981 -74.0181 170° South 159 183 7,400 -720 Descending Boston Center
07:53AM 43.1650 -74.0000 158° South 168 193 6,900 -600 Descending Boston Center
07:54AM 43.1506 -73.9939 163° South 182 209 6,800 -420 Descending Boston Center
07:54AM 43.1194 -73.9703 151° Southeast 173 199 6,500 -540 Descending Boston Center
07:55AM 43.1050 -73.9614 156° South 186 214 6,300 -540 Descending Boston Center
07:55AM 43.0764 -73.9353 146° Southeast 173 199 6,000 -540 Descending Boston Center
07:56AM 43.0617 -73.9292 163° South 181 208 5,800 -540 Descending Boston Center
07:56AM 43.0308 -73.9028 148° Southeast 178 205 5,500 -540 Descending Boston Center
07:57AM 43.0164 -73.8939 156° South 181 208 5,300 -540 Descending Boston Center
07:57AM 42.9875 -73.8733 153° Southeast 178 205 5,000 -540 Descending Boston Center
07:58AM 42.9689 -73.8617 155° Southeast 181 208 4,700 -720 Descending Boston Center
07:58AM 42.9419 -73.8411 151° Southeast 183 211 4,300 -1,200 Descending Boston Center
07:59AM 42.9214 -73.8267 153° Southeast 187 215 3,500 -1,440 Descending Boston Center
07:59AM 42.8944 -73.8117 158° South 183 211 2,900 -900 Descending Boston Center
08:00AM 42.8672 -73.8139 183° South 187 215 2,600 -900 Descending Boston Center
08:01AM 42.8236 -73.8131 179° South 161 185 1,600 -900 Descending Boston Center
08:02AM 42.7839 -73.8064 173° South 128 147 900 -720 Descending Boston Center
08:04AM 42.7491 -73.8020 170° South  Level Estimated
08:11AM 42.7491 -73.8020 170° South  Level Estimated
08:12AM 42.7491 -73.8020 170° South  Level Estimated
08:13AM 42.7491 -73.8020 170° South  Level Estimated
08:14AM 42.7491 -73.8020 170° South  Level Estimated